Schedule Details


Flight Number: CTN451
Departure: Schiphol (EHAM) at 11:20
Arrival: Franjo Tudman (LDZA) at 13:10
Route: EDUPO UZ738 NAPRO Z739 DEPAD UZ738 MISGO UZ741 GMH UL603 LATLO DCT BERTA DCT ARGOM

Weather Information
EHAM 242055Z 36004KT 310V030 CAVOK 25/19 Q1017 NOSIG
LDZA 242100Z 33002KT CAVOK 22/18 Q1021 NOSIG
Schedule Frequency

Route Map